Terminal Aerodrome Forecast
Issued by NWS Tampa Bay Area, FL

Home | Current Version | Previous Version | Text Only | Print | Product List | Glossary On
Versions: 1 2 3 4 5 6 7 8 9 10 11 12 13 14 15 16
000
FTUS42 KTBW 242300
TAFFMY
TAF
KFMY 242332Z 2500/2524 26008KT P6SM SKC
     FM250100 VRB04KT P6SM SKC
     FM250900 VRB03KT 5SM BR SKC
     FM251300 24005KT P6SM FEW020
     FM251800 26009KT P6SM FEW035=

USA.gov is the U.S. government's official web portal to all federal, state and local government web resources and services.